Airport Name : Lelystad

Other Name : Lelystad

ICAO : EHLE

IATA : LEY

FAA :

Latitude : 52.460278

Longitude : 5.527222

Country : Netherlands

Local Date and Time : 22 Oct 2020 20:25

 

TAF (Terminal Aerodrome Forecast)

TAF EHLE 221720Z 2218/2324 23010KT 9999 FEW030 BECMG 2220/2223 19005KT 6000 BECMG 2223/2302 2000 BR MIFG BECMG 2302/2305 0800 BCFG PROB30 2304/2308 0300 FG VV001 BECMG 2308/2311 3000 BR BKN003 BECMG 2311/2313 22012KT 9999 NSW FEW008 SCT025 PROB30 TEMPO 2313/2324 5000 -SHRA BR BKN015 FEW020TCU

 

METAR (METeorological Aerodrome Report)

EHLE 221755Z AUTO 22007KT 9999 NCD 12/10 Q1010 NOSIG

EHLE 221725Z AUTO 22008KT 9999 BKN029 13/10 Q1010 NOSIG

EHLE 221655Z AUTO 22008KT 9999 NCD 13/10 Q1009 NOSIG

EHLE 221625Z AUTO 23011KT 9999 NCD 14/11 Q1009 NOSIG

EHLE 221555Z AUTO 22010KT 9999 NCD 14/11 Q1009 NOSIG

EHLE 221525Z AUTO 21011KT 180V250 9999 NSC 15/11 Q1009 NOSIG

EHLE 221455Z AUTO 20011KT 170V230 9999 FEW022 15/12 Q1009 NOSIG

To Charter a Jet Click here.